Terminal Aerodrome Forecast
Issued by NWS

Home | Current Version | Previous Version | Text Only | Print | Product List | Glossary Off
Versions: 1 2 3 4 5 6 7 8 9 10 11 12 13 14 15

740
FTUS43 KMPX 231132
TAFRWF
TAF
KRWF 231132Z 2312/2412 36010KT P6SM SCT025 BKN040
     FM232000 05013KT P6SM OVC035
     FM240000 04014KT P6SM -RASN OVC040
     FM240100 04014G22KT P6SM -SN OVC040
     FM240300 03015G24KT 6SM -SN OVC025
     FM240800 02017G27KT 2SM -SN BLSN OVC025=

USA.gov is the U.S. government's official web portal to all federal, state and local government web resources and services.